createdAt,value
2023-03-29T00:00:46.099Z,93.93
2023-03-29T00:01:46.111Z,94.04
2023-03-29T00:02:46.153Z,94.35
2023-03-29T00:03:46.158Z,94.45
2023-03-29T00:04:46.178Z,94.04
2023-03-29T00:05:46.137Z,94.76
2023-03-29T00:06:46.069Z,95.07
2023-03-29T00:07:46.056Z,94.97
2023-03-29T00:08:46.049Z,95.34
2023-03-29T00:09:46.149Z,95.28
2023-03-29T00:10:46.044Z,95.28
2023-03-29T00:11:46.095Z,95.34
2023-03-29T00:12:46.040Z,95.14
2023-03-29T00:13:46.021Z,95.18
2023-03-29T00:14:46.049Z,95.14
2023-03-29T00:15:46.024Z,95.28
2023-03-29T00:16:46.002Z,95.49
2023-03-29T00:17:46.063Z,95.86
2023-03-29T00:18:46.008Z,96.06
2023-03-29T00:19:45.976Z,95.34
2023-03-29T00:21:22.097Z,95.90
2023-03-29T00:21:45.966Z,95.34
2023-03-29T00:22:45.999Z,95.07
2023-03-29T00:23:46.019Z,95.59
2023-03-29T00:24:45.945Z,95.07
2023-03-29T00:25:45.932Z,94.66
2023-03-29T00:26:45.928Z,94.76
2023-03-29T00:27:45.897Z,94.97
2023-03-29T00:28:45.896Z,95.39
2023-03-29T00:29:45.929Z,95.43
2023-03-29T00:30:45.900Z,94.81
2023-03-29T00:31:46.037Z,95.32
2023-03-29T00:32:45.954Z,95.01
2023-03-29T00:33:45.871Z,95.22
2023-03-29T00:34:45.925Z,96.05
2023-03-29T00:35:45.955Z,96.05
2023-03-29T00:36:45.864Z,95.95
2023-03-29T00:37:45.867Z,96.47
2023-03-29T00:38:45.855Z,96.36
2023-03-29T00:39:45.834Z,96.36
2023-03-29T00:40:45.817Z,96.36
2023-03-29T00:41:45.868Z,96.52
2023-03-29T00:42:45.816Z,96.21
2023-03-29T00:43:45.791Z,96.15
2023-03-29T00:44:45.798Z,96.26
2023-03-29T00:45:45.820Z,96.05
2023-03-29T00:46:45.809Z,96.15
2023-03-29T00:47:46.310Z,96.15
2023-03-29T00:48:45.757Z,96.47
2023-03-29T00:49:45.786Z,95.95
2023-03-29T00:50:45.758Z,96.47
2023-03-29T00:51:45.769Z,96.57
2023-03-29T00:52:45.753Z,96.73
2023-03-29T00:53:45.799Z,96.62
2023-03-29T00:54:45.735Z,96.88
2023-03-29T00:55:45.752Z,96.88
2023-03-29T00:56:45.806Z,97.09
2023-03-29T00:57:45.706Z,96.78
2023-03-29T00:58:45.705Z,97.25
2023-03-29T00:59:45.729Z,97.25
2023-03-29T01:00:45.699Z,96.83
2023-03-29T01:01:45.738Z,96.94
2023-03-29T01:02:45.718Z,96.94
2023-03-29T01:03:45.743Z,96.94
2023-03-29T01:04:45.666Z,96.73
2023-03-29T01:05:45.698Z,97.00
2023-03-29T01:06:45.670Z,96.94
2023-03-29T01:07:45.637Z,96.83
2023-03-29T01:08:45.653Z,97.14
2023-03-29T01:09:45.622Z,97.14
2023-03-29T01:10:45.610Z,97.04
2023-03-29T01:11:45.648Z,96.83
2023-03-29T01:12:45.601Z,97.04
2023-03-29T01:13:45.618Z,97.00
2023-03-29T01:14:45.614Z,96.69
2023-03-29T01:15:45.587Z,96.52
2023-03-29T01:16:45.694Z,96.73
2023-03-29T01:17:45.647Z,96.94
2023-03-29T01:18:45.561Z,96.62
2023-03-29T01:19:45.550Z,96.83
2023-03-29T01:20:45.581Z,96.62
2023-03-29T01:21:45.543Z,96.94
2023-03-29T01:22:45.562Z,96.73
2023-03-29T01:23:45.581Z,96.62
2023-03-29T01:24:45.532Z,96.42
2023-03-29T01:25:45.574Z,96.52
2023-03-29T01:26:45.532Z,96.11
2023-03-29T01:27:45.507Z,96.31
2023-03-29T01:28:45.510Z,96.31
2023-03-29T01:29:45.570Z,95.90
2023-03-29T01:30:45.508Z,96.42
2023-03-29T01:31:45.598Z,96.42
2023-03-29T01:32:45.581Z,96.31
2023-03-29T01:33:45.518Z,96.83
2023-03-29T01:34:45.452Z,96.42
2023-03-29T01:35:45.587Z,96.83
2023-03-29T01:36:45.453Z,96.42
2023-03-29T01:37:45.444Z,96.01
2023-03-29T01:38:45.430Z,96.01
2023-03-29T01:39:45.444Z,96.11
2023-03-29T01:40:45.415Z,96.42
2023-03-29T01:41:45.437Z,95.90
2023-03-29T01:42:45.408Z,96.06
2023-03-29T01:43:45.394Z,96.01
2023-03-29T01:44:45.415Z,95.80
2023-03-29T01:45:45.442Z,96.01
2023-03-29T01:46:45.399Z,96.31
2023-03-29T01:47:45.413Z,96.42
2023-03-29T01:48:45.365Z,96.62
2023-03-29T01:49:45.389Z,96.73
2023-03-29T01:50:45.344Z,96.62
2023-03-29T01:51:45.357Z,96.52
2023-03-29T01:52:45.348Z,96.73
2023-03-29T01:53:45.749Z,96.52
2023-03-29T01:54:45.313Z,96.73
2023-03-29T01:55:45.312Z,97.14
2023-03-29T01:56:45.333Z,96.52
2023-03-29T01:57:45.312Z,96.94
2023-03-29T01:58:45.296Z,97.19
2023-03-29T01:59:45.348Z,96.78
2023-03-29T02:00:45.288Z,97.04
2023-03-29T02:01:45.336Z,97.09
2023-03-29T02:02:45.398Z,97.09
2023-03-29T02:03:45.334Z,96.88
2023-03-29T02:04:45.273Z,97.39
2023-03-29T02:05:45.310Z,96.98
2023-03-29T02:06:45.245Z,97.19
2023-03-29T02:07:45.234Z,96.88
2023-03-29T02:08:45.239Z,96.98
2023-03-29T02:09:45.228Z,97.29
2023-03-29T02:10:45.222Z,97.39
2023-03-29T02:11:45.273Z,97.09
2023-03-29T02:12:45.180Z,96.98
2023-03-29T02:13:45.204Z,97.04
2023-03-29T02:14:45.178Z,96.05
2023-03-29T02:15:45.227Z,96.47
2023-03-29T02:16:45.174Z,96.57
2023-03-29T02:17:45.220Z,96.47
2023-03-29T02:18:45.170Z,96.67
2023-03-29T02:19:45.136Z,97.09
2023-03-29T02:20:45.176Z,97.09
2023-03-29T02:21:45.120Z,96.62
2023-03-29T02:22:45.127Z,96.78
2023-03-29T02:24:31.207Z,96.47
2023-03-29T02:24:45.144Z,96.78
2023-03-29T02:26:05.748Z,96.88
2023-03-29T02:26:46.122Z,96.98
2023-03-29T02:27:45.099Z,96.88
2023-03-29T02:28:45.119Z,96.88
2023-03-29T02:29:45.106Z,96.78
2023-03-29T02:30:45.114Z,96.52
2023-03-29T02:31:45.164Z,96.88
2023-03-29T02:32:45.133Z,96.78
2023-03-29T02:33:45.044Z,96.47
2023-03-29T02:34:45.062Z,96.47
2023-03-29T02:35:45.154Z,96.47
2023-03-29T02:36:45.063Z,96.05
2023-03-29T02:37:45.014Z,96.26
2023-03-29T02:38:45.033Z,96.47
2023-03-29T02:39:45.029Z,96.57
2023-03-29T02:40:45.005Z,96.47
2023-03-29T02:41:45.008Z,96.01
2023-03-29T02:42:45.003Z,95.84
2023-03-29T02:43:45.001Z,96.01
2023-03-29T02:44:45.010Z,96.11
2023-03-29T02:45:44.979Z,96.11
2023-03-29T02:46:44.961Z,96.05
2023-03-29T02:47:45.069Z,95.43
2023-03-29T02:48:44.958Z,95.43
2023-03-29T02:49:44.939Z,95.01
2023-03-29T02:50:44.933Z,95.43
2023-03-29T02:51:44.915Z,95.32
2023-03-29T02:52:44.928Z,95.43
2023-03-29T02:53:44.968Z,95.53
2023-03-29T02:54:44.910Z,95.53
2023-03-29T02:55:44.907Z,96.05
2023-03-29T02:56:45.012Z,96.05
2023-03-29T02:57:44.893Z,96.57
2023-03-29T02:58:44.880Z,96.83
2023-03-29T02:59:44.957Z,97.04
2023-03-29T03:00:44.868Z,96.47
2023-03-29T03:01:44.988Z,96.78
2023-03-29T03:02:44.933Z,96.88
2023-03-29T03:03:44.942Z,97.25
2023-03-29T03:04:44.840Z,97.25
2023-03-29T03:05:44.869Z,97.35
2023-03-29T03:06:44.808Z,97.45
2023-03-29T03:07:44.792Z,97.77
2023-03-29T03:08:44.813Z,97.66
2023-03-29T03:09:44.792Z,97.45
2023-03-29T03:10:44.781Z,97.14
2023-03-29T03:11:44.879Z,97.14
2023-03-29T03:12:46.424Z,96.62
2023-03-29T03:13:44.778Z,96.83
2023-03-29T03:14:44.776Z,96.94
2023-03-29T03:15:44.755Z,96.78
2023-03-29T03:16:44.858Z,96.78
2023-03-29T03:17:44.827Z,97.39
2023-03-29T03:18:44.765Z,97.60
2023-03-29T03:19:44.776Z,97.60
2023-03-29T03:20:44.728Z,98.02
2023-03-29T03:21:44.731Z,98.74
2023-03-29T03:22:44.729Z,98.39
2023-03-29T03:23:44.739Z,98.28
2023-03-29T03:24:44.706Z,97.19
2023-03-29T03:25:44.693Z,97.77
2023-03-29T03:26:44.665Z,97.29
2023-03-29T03:27:44.676Z,97.50
2023-03-29T03:28:44.676Z,97.71
2023-03-29T03:29:44.693Z,97.91
2023-03-29T03:30:44.664Z,98.02
2023-03-29T03:31:44.807Z,97.19
2023-03-29T03:32:44.722Z,97.29
2023-03-29T03:33:44.611Z,97.39
2023-03-29T03:34:44.601Z,97.50
2023-03-29T03:35:44.674Z,97.29
2023-03-29T03:36:44.615Z,97.39
2023-03-29T03:37:44.624Z,97.39
2023-03-29T03:38:44.602Z,97.19
2023-03-29T03:39:44.595Z,97.29
2023-03-29T03:40:44.568Z,97.39
2023-03-29T03:41:44.611Z,97.29
2023-03-29T03:42:44.605Z,97.19
2023-03-29T03:43:44.565Z,97.14
2023-03-29T03:44:44.538Z,97.14
2023-03-29T03:45:44.540Z,97.25
2023-03-29T03:46:44.537Z,97.25
2023-03-29T03:47:44.612Z,96.94
2023-03-29T03:48:44.533Z,97.25
2023-03-29T03:49:50.748Z,97.19
2023-03-29T03:50:44.505Z,97.35
2023-03-29T03:51:44.480Z,97.14
2023-03-29T03:52:44.502Z,97.14
2023-03-29T03:53:44.530Z,97.14
2023-03-29T03:54:44.465Z,97.31
2023-03-29T03:55:44.485Z,97.35
2023-03-29T03:56:44.476Z,97.31
2023-03-29T03:57:44.442Z,97.31
2023-03-29T03:58:44.455Z,97.31
2023-03-29T03:59:44.829Z,97.45
2023-03-29T04:00:44.424Z,97.00
2023-03-29T04:01:44.458Z,96.62
2023-03-29T04:02:44.490Z,97.04
2023-03-29T04:03:44.474Z,97.04
2023-03-29T04:04:44.426Z,96.62
2023-03-29T04:05:44.442Z,96.52
2023-03-29T04:06:44.398Z,96.83
2023-03-29T04:07:44.409Z,96.83
2023-03-29T04:08:44.386Z,96.94
2023-03-29T04:09:44.359Z,96.31
2023-03-29T04:10:44.356Z,96.42
2023-03-29T04:11:44.405Z,96.73
2023-03-29T04:12:44.376Z,96.21
2023-03-29T04:13:44.339Z,96.21
2023-03-29T04:14:44.353Z,96.52
2023-03-29T04:15:44.355Z,95.90
2023-03-29T04:16:44.347Z,96.31
2023-03-29T04:17:44.429Z,96.21
2023-03-29T04:18:44.495Z,95.28
2023-03-29T04:19:44.298Z,95.28
2023-03-29T04:20:44.291Z,95.18
2023-03-29T04:21:44.298Z,95.49
2023-03-29T04:22:44.283Z,95.59
2023-03-29T04:23:44.300Z,95.59
2023-03-29T04:24:44.282Z,95.18
2023-03-29T04:25:44.269Z,95.07
2023-03-29T04:26:44.242Z,95.39
2023-03-29T04:27:44.268Z,94.35
2023-03-29T04:28:44.242Z,94.87
2023-03-29T04:29:44.268Z,94.35
2023-03-29T04:30:44.244Z,94.87
2023-03-29T04:31:44.244Z,94.76
2023-03-29T04:32:44.239Z,95.18
2023-03-29T04:33:44.212Z,94.87
2023-03-29T04:34:44.197Z,94.04
2023-03-29T04:35:44.275Z,94.35
2023-03-29T04:36:44.188Z,93.93
2023-03-29T04:37:44.168Z,93.52
2023-03-29T04:38:47.319Z,93.62
2023-03-29T04:39:44.160Z,93.52
2023-03-29T04:40:44.357Z,93.52
2023-03-29T04:41:44.199Z,93.73
2023-03-29T04:42:44.150Z,93.89
2023-03-29T04:43:44.163Z,93.83
2023-03-29T04:44:44.224Z,93.73
2023-03-29T04:45:44.131Z,93.89
2023-03-29T04:46:44.167Z,93.79
2023-03-29T04:47:44.212Z,92.85
2023-03-29T04:48:44.157Z,93.16
2023-03-29T04:49:44.147Z,92.96
2023-03-29T04:50:44.096Z,93.10
2023-03-29T04:51:44.166Z,93.37
2023-03-29T04:52:44.193Z,93.27
2023-03-29T04:53:44.168Z,93.21
2023-03-29T04:54:44.068Z,93.73
2023-03-29T04:55:44.047Z,93.89
2023-03-29T04:56:44.077Z,93.79
2023-03-29T04:57:44.033Z,92.03
2023-03-29T04:58:44.050Z,92.28
2023-03-29T04:59:44.065Z,92.18
2023-03-29T05:00:44.022Z,93.00
2023-03-29T05:01:44.125Z,92.85
2023-03-29T05:02:44.099Z,93.37
2023-03-29T05:03:44.060Z,91.93
2023-03-29T05:04:44.021Z,92.03
2023-03-29T05:05:44.388Z,93.27
2023-03-29T05:06:43.968Z,93.16
2023-03-29T05:07:43.970Z,93.37
2023-03-29T05:08:43.974Z,93.27
2023-03-29T05:09:43.972Z,92.13
2023-03-29T05:10:43.940Z,93.37
2023-03-29T05:11:43.972Z,93.27
2023-03-29T05:12:43.951Z,92.13
2023-03-29T05:13:43.953Z,93.16
2023-03-29T05:14:43.924Z,92.24
2023-03-29T05:15:43.912Z,92.24
2023-03-29T05:16:43.984Z,92.03
2023-03-29T05:17:43.984Z,91.72
2023-03-29T05:18:43.879Z,91.93
2023-03-29T05:19:43.884Z,91.82
2023-03-29T05:20:43.883Z,91.82
2023-03-29T05:21:45.475Z,91.51
2023-03-29T05:22:43.858Z,91.82
2023-03-29T05:23:43.929Z,91.61
2023-03-29T05:24:43.856Z,91.61
2023-03-29T05:25:43.860Z,91.36
2023-03-29T05:26:43.832Z,91.61
2023-03-29T05:27:43.842Z,91.61
2023-03-29T05:28:43.863Z,91.72
2023-03-29T05:29:43.859Z,92.19
2023-03-29T05:30:43.802Z,91.30
2023-03-29T05:31:43.882Z,91.67
2023-03-29T05:32:43.830Z,91.67
2023-03-29T05:33:43.805Z,91.36
2023-03-29T05:34:43.820Z,91.47
2023-03-29T05:35:43.836Z,91.36
2023-03-29T05:36:43.839Z,91.05
2023-03-29T05:37:43.748Z,92.09
2023-03-29T05:38:43.761Z,91.99
2023-03-29T05:39:43.727Z,91.67
2023-03-29T05:40:43.752Z,91.47
2023-03-29T05:41:43.763Z,90.84
2023-03-29T05:42:43.731Z,91.16
2023-03-29T05:43:43.713Z,91.05
2023-03-29T05:44:43.748Z,90.64
2023-03-29T05:45:43.754Z,90.64
2023-03-29T05:46:43.707Z,90.95
2023-03-29T05:47:43.775Z,91.67
2023-03-29T05:48:43.685Z,91.67
2023-03-29T05:49:43.683Z,91.26
2023-03-29T05:50:46.228Z,91.72
2023-03-29T05:51:43.657Z,92.03
2023-03-29T05:52:43.645Z,92.03
2023-03-29T05:53:43.698Z,91.72
2023-03-29T05:54:43.628Z,91.51
2023-03-29T05:55:43.649Z,91.72
2023-03-29T05:56:43.663Z,91.72
2023-03-29T05:57:43.634Z,91.16
2023-03-29T05:58:43.640Z,90.95
2023-03-29T05:59:43.645Z,91.57
2023-03-29T06:00:43.583Z,90.44
2023-03-29T06:01:43.597Z,90.64
2023-03-29T06:02:43.675Z,89.50
2023-03-29T06:03:43.684Z,90.53
2023-03-29T06:04:43.618Z,90.33
2023-03-29T06:05:43.610Z,89.61
2023-03-29T06:06:43.568Z,89.71
2023-03-29T06:07:43.551Z,89.25
2023-03-29T06:08:43.562Z,89.36
2023-03-29T06:09:43.564Z,89.25
2023-03-29T06:10:43.532Z,89.62
2023-03-29T06:11:43.778Z,89.11
2023-03-29T06:12:43.552Z,88.70
2023-03-29T06:13:43.520Z,88.80
2023-03-29T06:14:43.512Z,88.07
2023-03-29T06:15:43.508Z,88.07
2023-03-29T06:16:43.594Z,88.28
2023-03-29T06:17:43.582Z,88.28
2023-03-29T06:18:43.491Z,87.35
2023-03-29T06:19:43.478Z,87.97
2023-03-29T06:20:43.456Z,88.28
2023-03-29T06:21:43.457Z,87.76
2023-03-29T06:22:43.469Z,87.46
2023-03-29T06:23:43.484Z,88.49
2023-03-29T06:24:43.433Z,87.56
2023-03-29T06:25:43.426Z,87.25
2023-03-29T06:26:43.448Z,87.56
2023-03-29T06:27:43.406Z,86.73
2023-03-29T06:28:43.407Z,87.15
2023-03-29T06:29:43.459Z,86.73
2023-03-29T06:30:43.399Z,86.59
2023-03-29T06:31:43.414Z,86.79
2023-03-29T06:32:43.455Z,87.21
2023-03-29T06:33:43.379Z,86.28
2023-03-29T06:34:43.360Z,86.49
2023-03-29T06:35:43.404Z,86.18
2023-03-29T06:36:43.367Z,86.90
2023-03-29T06:37:43.383Z,86.69
2023-03-29T06:38:43.341Z,85.97
2023-03-29T06:39:43.355Z,85.97
2023-03-29T06:40:43.333Z,85.97
2023-03-29T06:41:43.338Z,86.18
2023-03-29T06:42:43.315Z,85.72
2023-03-29T06:43:43.293Z,84.79
2023-03-29T06:44:43.294Z,85.14
2023-03-29T06:45:43.288Z,86.13
2023-03-29T06:46:43.362Z,85.93
2023-03-29T06:47:43.402Z,86.13
2023-03-29T06:48:43.300Z,85.72
2023-03-29T06:49:43.250Z,85.62
2023-03-29T06:50:43.276Z,85.72
2023-03-29T06:51:43.241Z,85.52
2023-03-29T06:52:43.244Z,85.41
2023-03-29T06:53:43.295Z,85.62
2023-03-29T06:54:43.224Z,85.52
2023-03-29T06:55:43.265Z,85.83
2023-03-29T06:56:43.243Z,85.89
2023-03-29T06:57:43.235Z,85.41
2023-03-29T06:58:43.214Z,85.72
2023-03-29T06:59:43.233Z,85.78
2023-03-29T07:00:43.194Z,85.78
2023-03-29T07:01:43.260Z,85.10
2023-03-29T07:02:43.246Z,86.13
2023-03-29T07:03:44.767Z,86.65
2023-03-29T07:04:43.278Z,86.30
2023-03-29T07:05:43.182Z,86.65
2023-03-29T07:06:43.126Z,85.99
2023-03-29T07:07:43.137Z,85.47
2023-03-29T07:08:43.119Z,85.27
2023-03-29T07:09:43.120Z,85.83
2023-03-29T07:10:43.132Z,86.24
2023-03-29T07:11:43.483Z,86.20
2023-03-29T07:12:43.113Z,86.51
2023-03-29T07:13:43.121Z,85.37
2023-03-29T07:14:45.144Z,86.30
2023-03-29T07:15:43.063Z,85.58
2023-03-29T07:16:43.141Z,85.06
2023-03-29T07:17:43.403Z,85.58
2023-03-29T07:18:43.129Z,85.06
2023-03-29T07:19:43.048Z,84.96
2023-03-29T07:20:43.073Z,85.06
2023-03-29T07:21:43.030Z,85.78
2023-03-29T07:22:43.020Z,84.59
2023-03-29T07:23:43.089Z,85.27
2023-03-29T07:24:43.021Z,85.06
2023-03-29T07:25:43.030Z,84.51
2023-03-29T07:26:52.269Z,83.72
2023-03-29T07:27:44.006Z,84.03
2023-03-29T07:28:43.009Z,84.72
2023-03-29T07:29:42.997Z,84.44
2023-03-29T07:30:42.982Z,85.13
2023-03-29T07:31:42.995Z,85.02
2023-03-29T07:32:43.042Z,84.61
2023-03-29T07:33:43.146Z,84.09
2023-03-29T07:34:42.990Z,84.99
2023-03-29T07:35:42.986Z,83.95
2023-03-29T07:36:42.920Z,83.85
2023-03-29T07:37:43.055Z,84.06
2023-03-29T07:38:42.958Z,83.09
2023-03-29T07:39:42.901Z,83.15
2023-03-29T07:40:42.902Z,83.91
2023-03-29T07:41:42.921Z,82.95
2023-03-29T07:42:42.885Z,83.42
2023-03-29T07:43:42.878Z,81.81
2023-03-29T07:44:42.860Z,82.33
2023-03-29T07:45:42.847Z,83.15
2023-03-29T07:46:42.861Z,83.98
2023-03-29T07:47:42.888Z,83.15
2023-03-29T07:48:42.827Z,83.12
2023-03-29T07:49:42.823Z,82.15
2023-03-29T07:50:42.836Z,82.35
2023-03-29T07:51:42.828Z,81.53
2023-03-29T07:52:42.807Z,81.47
2023-03-29T07:53:42.871Z,82.40
2023-03-29T07:54:42.796Z,81.81
2023-03-29T07:55:44.642Z,82.23
2023-03-29T07:56:42.823Z,82.98
2023-03-29T07:57:42.765Z,83.15
2023-03-29T07:58:42.748Z,82.33
2023-03-29T07:59:42.778Z,82.91
2023-03-29T08:00:42.796Z,82.40
2023-03-29T08:01:42.724Z,82.19
2023-03-29T08:02:42.746Z,82.09
2023-03-29T08:03:42.815Z,81.98
2023-03-29T08:04:42.755Z,81.43
2023-03-29T08:05:42.820Z,80.91
2023-03-29T08:06:42.695Z,81.84
2023-03-29T08:07:42.684Z,81.63
2023-03-29T08:08:42.712Z,81.67
2023-03-29T08:09:42.651Z,81.88
2023-03-29T08:10:42.722Z,81.88
2023-03-29T08:11:42.694Z,81.23
2023-03-29T08:12:42.658Z,81.43
2023-03-29T08:13:42.658Z,81.02
2023-03-29T08:14:42.645Z,81.43
2023-03-29T08:15:42.637Z,81.02
2023-03-29T08:16:42.671Z,80.44
2023-03-29T08:17:42.686Z,81.37
2023-03-29T08:18:42.599Z,81.43
2023-03-29T08:19:50.822Z,80.09
2023-03-29T08:20:43.600Z,80.09
2023-03-29T08:21:42.584Z,81.33
2023-03-29T08:22:42.578Z,80.36
2023-03-29T08:23:42.998Z,80.19
2023-03-29T08:24:42.572Z,81.09
2023-03-29T08:25:42.585Z,80.05
2023-03-29T08:26:42.555Z,80.26
2023-03-29T08:27:42.551Z,79.81
2023-03-29T08:28:42.558Z,80.22
2023-03-29T08:29:42.582Z,79.19
2023-03-29T08:30:42.555Z,80.08
2023-03-29T08:31:42.523Z,78.92
2023-03-29T08:32:42.558Z,78.40
2023-03-29T08:33:42.521Z,79.33
2023-03-29T08:34:42.489Z,77.82
2023-03-29T08:35:42.553Z,78.75
2023-03-29T08:36:42.481Z,78.50
2023-03-29T08:37:42.478Z,78.50
2023-03-29T08:38:42.458Z,78.40
2023-03-29T08:39:42.529Z,77.78
2023-03-29T08:40:42.457Z,78.47
2023-03-29T08:41:42.549Z,77.34
2023-03-29T08:42:42.449Z,77.30
2023-03-29T08:43:42.438Z,75.90
2023-03-29T08:44:42.430Z,77.34
2023-03-29T08:45:42.423Z,76.17
2023-03-29T08:46:42.527Z,76.07
2023-03-29T08:47:42.576Z,75.87
2023-03-29T08:48:42.498Z,76.07
2023-03-29T08:49:42.406Z,75.70
2023-03-29T08:50:42.390Z,76.31
2023-03-29T08:51:42.399Z,77.85
2023-03-29T08:52:42.362Z,76.58
2023-03-29T08:53:42.389Z,77.37
2023-03-29T08:54:42.349Z,75.01
2023-03-29T08:55:42.364Z,75.01
2023-03-29T08:56:42.366Z,75.42
2023-03-29T08:57:42.326Z,76.07
2023-03-29T08:58:42.367Z,75.32
2023-03-29T08:59:42.367Z,75.62
2023-03-29T09:00:42.306Z,75.76
2023-03-29T09:01:42.321Z,76.45
2023-03-29T09:02:42.336Z,74.91
2023-03-29T09:03:42.341Z,75.42
2023-03-29T09:04:42.320Z,76.45
2023-03-29T09:05:42.306Z,76.10
2023-03-29T09:06:42.281Z,74.46
2023-03-29T09:07:42.272Z,75.11
2023-03-29T09:08:42.257Z,76.75
2023-03-29T09:09:42.247Z,75.38
2023-03-29T09:10:42.236Z,73.95
2023-03-29T09:11:42.267Z,74.57
2023-03-29T09:12:42.272Z,75.21
2023-03-29T09:13:42.283Z,72.68
2023-03-29T09:14:42.204Z,73.98
2023-03-29T09:15:42.225Z,72.68
2023-03-29T09:16:42.192Z,72.72
2023-03-29T09:17:42.271Z,73.98
2023-03-29T09:18:42.222Z,74.98
2023-03-29T09:19:42.194Z,74.43
2023-03-29T09:20:42.160Z,73.10
2023-03-29T09:21:42.694Z,73.10
2023-03-29T09:22:42.147Z,72.38
2023-03-29T09:23:42.604Z,72.27
2023-03-29T09:24:42.182Z,71.69
2023-03-29T09:25:52.591Z,72.38
2023-03-29T09:26:43.186Z,72.92
2023-03-29T09:27:42.128Z,72.31
2023-03-29T09:28:42.115Z,73.54
2023-03-29T09:29:42.181Z,73.16
2023-03-29T09:30:42.105Z,72.14
2023-03-29T09:31:42.148Z,72.03
2023-03-29T09:32:42.143Z,72.03
2023-03-29T09:33:42.079Z,71.32
2023-03-29T09:34:42.075Z,72.44
2023-03-29T09:35:42.136Z,71.93
2023-03-29T09:36:42.870Z,71.62
2023-03-29T09:37:42.055Z,71.18
2023-03-29T09:38:42.045Z,71.69
2023-03-29T09:39:42.019Z,71.18
2023-03-29T09:40:42.063Z,70.06
2023-03-29T09:41:42.046Z,70.67
2023-03-29T09:42:42.000Z,70.29
2023-03-29T09:43:42.018Z,71.22
2023-03-29T09:44:42.009Z,71.45
2023-03-29T09:45:42.021Z,71.62
2023-03-29T09:46:41.981Z,70.87
2023-03-29T09:47:42.127Z,71.18
2023-03-29T09:48:41.972Z,71.28
2023-03-29T09:49:41.969Z,70.98
2023-03-29T09:50:41.971Z,69.95
2023-03-29T09:51:41.944Z,70.84
2023-03-29T09:52:41.962Z,69.65
2023-03-29T09:53:41.976Z,67.30
2023-03-29T09:54:41.921Z,67.98
2023-03-29T09:55:41.939Z,67.37
2023-03-29T09:56:41.987Z,68.08
2023-03-29T09:57:41.898Z,67.98
2023-03-29T09:58:41.922Z,66.99
2023-03-29T09:59:41.946Z,68.05
2023-03-29T10:00:41.901Z,68.12
2023-03-29T10:01:41.922Z,67.40
2023-03-29T10:02:41.892Z,68.52
2023-03-29T10:03:41.911Z,69.68
2023-03-29T10:04:41.918Z,67.71
2023-03-29T10:05:41.940Z,70.09
2023-03-29T10:06:41.843Z,69.58
2023-03-29T10:07:41.839Z,68.32
2023-03-29T10:08:41.870Z,68.12
2023-03-29T10:09:41.837Z,68.32
2023-03-29T10:10:41.792Z,68.01
2023-03-29T10:11:41.849Z,67.81
2023-03-29T10:12:41.819Z,69.04
2023-03-29T10:13:41.851Z,68.46
2023-03-29T10:14:41.792Z,69.17
2023-03-29T10:15:41.791Z,69.55
2023-03-29T10:16:41.860Z,69.14
2023-03-29T10:17:41.812Z,68.29
2023-03-29T10:18:41.793Z,67.57
2023-03-29T10:19:41.812Z,68.73
2023-03-29T10:20:41.756Z,69.85
2023-03-29T10:21:41.750Z,69.45
2023-03-29T10:22:41.750Z,69.45
2023-03-29T10:23:41.778Z,69.79
2023-03-29T10:24:41.746Z,70.33
2023-03-29T10:25:42.798Z,70.71
2023-03-29T10:26:41.717Z,69.75
2023-03-29T10:27:41.705Z,70.16
2023-03-29T10:28:41.706Z,69.31
2023-03-29T10:29:41.919Z,68.05
2023-03-29T10:30:41.672Z,68.66
2023-03-29T10:31:41.753Z,68.16
2023-03-29T10:32:41.710Z,68.46
2023-03-29T10:33:41.657Z,70.03
2023-03-29T10:34:41.627Z,68.49
2023-03-29T10:35:41.791Z,68.57
2023-03-29T10:36:41.619Z,68.12
2023-03-29T10:37:41.611Z,67.38
2023-03-29T10:38:41.622Z,65.95
2023-03-29T10:39:41.681Z,67.10
2023-03-29T10:40:41.596Z,67.85
2023-03-29T10:41:41.641Z,65.74
2023-03-29T10:42:41.602Z,65.95
2023-03-29T10:43:41.573Z,66.33
2023-03-29T10:44:41.594Z,66.02
2023-03-29T10:45:41.568Z,66.86
2023-03-29T10:46:41.630Z,66.22
2023-03-29T10:47:41.611Z,67.27
2023-03-29T10:48:41.600Z,65.71
2023-03-29T10:49:41.551Z,67.85
2023-03-29T10:50:41.530Z,67.11
2023-03-29T10:51:41.501Z,64.90
2023-03-29T10:52:41.499Z,63.79
2023-03-29T10:53:41.574Z,64.90
2023-03-29T10:54:41.512Z,65.04
2023-03-29T10:55:41.464Z,64.81
2023-03-29T10:56:41.669Z,64.02
2023-03-29T10:57:41.465Z,64.22
2023-03-29T10:58:41.459Z,65.14
2023-03-29T10:59:41.592Z,64.73
2023-03-29T11:00:41.428Z,64.09
2023-03-29T11:01:41.518Z,65.41
2023-03-29T11:02:41.644Z,67.14
2023-03-29T11:03:41.546Z,65.86
2023-03-29T11:04:41.504Z,65.95
2023-03-29T11:05:41.539Z,65.22
2023-03-29T11:06:41.472Z,64.22
2023-03-29T11:07:42.479Z,65.07
2023-03-29T11:08:41.387Z,65.28
2023-03-29T11:09:41.442Z,67.38
2023-03-29T11:10:41.361Z,66.13
2023-03-29T11:11:41.438Z,64.40
2023-03-29T11:12:41.330Z,65.14
2023-03-29T11:13:41.399Z,65.34
2023-03-29T11:14:41.356Z,66.00
2023-03-29T11:15:41.371Z,64.75
2023-03-29T11:16:41.314Z,64.34
2023-03-29T11:17:41.410Z,64.87
2023-03-29T11:18:41.333Z,64.17
2023-03-29T11:19:41.371Z,63.93
2023-03-29T11:20:41.380Z,64.17
2023-03-29T11:21:41.288Z,63.89
2023-03-29T11:22:41.305Z,64.60
2023-03-29T11:23:41.331Z,65.39
2023-03-29T11:24:41.282Z,64.47
2023-03-29T11:25:41.348Z,64.14
2023-03-29T11:26:42.369Z,63.80
2023-03-29T11:27:41.340Z,62.37
2023-03-29T11:28:41.357Z,62.98
2023-03-29T11:29:41.519Z,64.00
2023-03-29T11:30:41.225Z,64.41
2023-03-29T11:31:41.328Z,64.11
2023-03-29T11:32:41.266Z,64.20
2023-03-29T11:33:41.268Z,63.93
2023-03-29T11:34:41.208Z,63.93
2023-03-29T11:35:41.412Z,66.03
2023-03-29T11:36:41.197Z,66.36
2023-03-29T11:37:41.189Z,67.49
2023-03-29T11:38:43.284Z,67.59
2023-03-29T11:39:41.209Z,68.71
2023-03-29T11:40:41.150Z,68.51
2023-03-29T11:41:41.236Z,67.21
2023-03-29T11:42:41.148Z,67.96
2023-03-29T11:43:41.143Z,67.35
2023-03-29T11:44:41.129Z,68.40
2023-03-29T11:45:41.144Z,68.98
2023-03-29T11:46:41.190Z,67.82
2023-03-29T11:47:41.316Z,67.93
2023-03-29T11:48:41.151Z,70.17
2023-03-29T11:49:41.111Z,69.96
2023-03-29T11:50:41.099Z,68.20
2023-03-29T11:51:41.069Z,67.08
2023-03-29T11:52:41.153Z,67.46
2023-03-29T11:53:41.127Z,66.88
2023-03-29T11:54:41.085Z,67.79
2023-03-29T11:55:41.088Z,67.29
2023-03-29T11:56:41.094Z,67.69
2023-03-29T11:57:41.117Z,67.69
2023-03-29T11:58:41.156Z,67.08
2023-03-29T11:59:41.187Z,67.49
2023-03-29T12:00:41.013Z,67.79
2023-03-29T12:01:41.016Z,67.62
2023-03-29T12:02:41.226Z,67.08
2023-03-29T12:03:41.100Z,67.72
2023-03-29T12:04:40.991Z,68.20
2023-03-29T12:05:41.039Z,67.18
2023-03-29T12:06:40.991Z,67.08
2023-03-29T12:07:40.965Z,67.18
2023-03-29T12:08:40.968Z,66.94
2023-03-29T12:09:40.990Z,66.88
2023-03-29T12:10:40.935Z,67.08
2023-03-29T12:11:40.965Z,67.66
2023-03-29T12:12:40.936Z,67.15
2023-03-29T12:13:40.939Z,66.07
2023-03-29T12:14:40.928Z,66.58
2023-03-29T12:15:40.908Z,65.73
2023-03-29T12:16:40.985Z,65.97
2023-03-29T12:17:40.992Z,66.04
2023-03-29T12:18:40.949Z,64.76
2023-03-29T12:19:43.576Z,63.20
2023-03-29T12:20:40.899Z,63.07
2023-03-29T12:21:40.865Z,61.79
2023-03-29T12:22:40.890Z,61.72
2023-03-29T12:23:41.068Z,61.99
2023-03-29T12:24:40.880Z,61.39
2023-03-29T12:25:40.895Z,60.31
2023-03-29T12:26:40.869Z,59.70
2023-03-29T12:27:40.874Z,60.28
2023-03-29T12:28:40.875Z,60.08
2023-03-29T12:29:40.892Z,59.58
2023-03-29T12:30:40.815Z,59.85
2023-03-29T12:31:40.872Z,58.41
2023-03-29T12:32:40.853Z,57.29
2023-03-29T12:33:40.829Z,58.58
2023-03-29T12:34:40.770Z,58.23
2023-03-29T12:35:41.282Z,58.90
2023-03-29T12:36:40.749Z,60.24
2023-03-29T12:37:40.813Z,61.59
2023-03-29T12:38:40.751Z,63.82
2023-03-29T12:39:40.750Z,63.07
2023-03-29T12:40:40.763Z,63.68
2023-03-29T12:41:40.815Z,63.71
2023-03-29T12:42:40.745Z,64.12
2023-03-29T12:43:40.757Z,64.07
2023-03-29T12:44:40.710Z,65.12
2023-03-29T12:45:40.792Z,65.30
2023-03-29T12:46:40.738Z,65.50
2023-03-29T12:47:40.743Z,65.09
2023-03-29T12:48:40.692Z,64.35
2023-03-29T12:49:40.700Z,64.73
2023-03-29T12:50:40.678Z,63.78
2023-03-29T12:51:40.672Z,63.94
2023-03-29T12:52:40.653Z,64.04